TAMU Turf Lab's Hourly Summary for Saturday, July 7, 2018
Hour Temp
(f)
RH
(%)
Solar Rad.
(MJ/m2)
Rainfall
(in)
Wind
(mph)
7/7/2018 12:00 AM 77 81 0 0 5.5
7/7/2018 1:00 AM 77 81 0 0 4.64
7/7/2018 2:00 AM 77 82 0 0 4.44
7/7/2018 3:00 AM 76 82 0 0 5.31
7/7/2018 4:00 AM 76 82 0 0 4.09
7/7/2018 5:00 AM 75 82 0 0 2.85
7/7/2018 6:00 AM 75 85 0 0 2.59
7/7/2018 7:00 AM 75 85 0.02 0 1.86
7/7/2018 8:00 AM 75 86 0.16 0 2.05
7/7/2018 9:00 AM 76 81 0.58 0 2.65
7/7/2018 10:00 AM 78 73 1.16 0 2.49
7/7/2018 11:00 AM 82 66 1.87 0 2.83
7/7/2018 12:00 PM 85 58 2 0 3.1
7/7/2018 1:00 PM 82 53 1.3 0 4.59
7/7/2018 2:00 PM 72 64 0.2 0.56 7.09
7/7/2018 3:00 PM 72 92 0.88 0 4.59
7/7/2018 4:00 PM 73 89 0.08 0.34 4.35
7/7/2018 5:00 PM 73 90 0.19 0.01 3.43
7/7/2018 6:00 PM 75 88 0.19 0.01 1.79
7/7/2018 7:00 PM 75 88 0.13 0 0.41
7/7/2018 8:00 PM 75 88 0.09 0 0.7
7/7/2018 9:00 PM 75 86 0.03 0 1.74
7/7/2018 10:00 PM 75 86 0 0 0.86
7/7/2018 11:00 PM 74 89 0 0 0.11
Data Summary 76 80 8.88 0.92 3.09